LFOP 242330Z AUTO 22003KT 1100 0650 R22/1700U BCFG NSC 03/03 Q1012

ElémentsDécodage
LFOP Station météo située sur l'aérodrome de ROUEN Vallée-de-Seine
242330Z émis le 24 du mois à 23h30 UTC
AUTO Bulletin édité par un automate
22003KT vent du 220°, 03 noeuds
1100 visibilité horizontale de 1100 mètres
0650 visibilité horizontale de 650 mètres
R22/1700U portée visuelle de piste
piste 22, 1700 mètres, en hausse
BCFG bancs de brouillard
NSC pas de nuage significatif (pas de nuage <5000ft, pas de CB)
03/03 température 03°C, point de rosée 03°C
 soit une humidité relative de 100%
Q1012 la pression au niveau de la mer (QNH) est de 1012 hPa